Time;durP1;ratioP1;P1;durP2;ratioP2;P2;SDS_P1;SDS_P2;PMS_P1;PMS_P2;Temp;Humidity;BMP_temperature;BMP_pressure;BME280_temperature;BME280_humidity;BME280_pressure;Samples;Min_cycle;Max_cycle;Signal;HPM_P1;HPM_P2
2021/05/22 07:01:09;;;;;;;4.05;1.17;;;;;;;17.59;46.81;98171.25;5575627;23;20082;-71
2021/05/22 07:03:34;;;;;;;5.00;1.20;;;;;;;17.55;47.55;98162.72;4935423;29;20434;-70
2021/05/22 07:06:01;;;;;;;3.72;1.25;;;;;;;16.77;48.18;98150.44;4935487;29;20392;-75
2021/05/22 07:08:27;;;;;;;8.93;2.67;;;;;;;17.96;45.76;98155.16;4935406;29;20035;-71
2021/05/22 07:10:53;;;;;;;4.18;1.10;;;;;;;19.14;42.89;98141.94;4935463;29;20043;-71
2021/05/22 07:13:18;;;;;;;5.95;1.70;;;;;;;20.68;38.65;98137.00;4935401;29;20051;-71
2021/05/22 07:15:43;;;;;;;3.53;0.80;;;;;;;19.54;40.93;98142.88;4935751;29;20468;-74
2021/05/22 07:18:09;;;;;;;3.03;1.10;;;;;;;17.52;44.40;98164.69;4935080;29;20036;-74
2021/05/22 07:20:34;;;;;;;6.13;1.40;;;;;;;16.86;47.00;98157.78;4935335;29;20432;-73
2021/05/22 07:23:00;;;;;;;2.83;1.10;;;;;;;17.14;46.23;98155.38;4935067;29;20067;-70
2021/05/22 07:25:26;;;;;;;5.78;1.25;;;;;;;18.23;44.28;98157.94;4935153;29;20103;-70
2021/05/22 07:27:53;;;;;;;6.78;1.50;;;;;;;16.83;46.49;98153.59;4934999;29;20054;-70
2021/05/22 07:30:19;;;;;;;5.28;1.10;;;;;;;15.58;49.07;98167.72;4935012;29;20023;-70
2021/05/22 07:32:45;;;;;;;6.07;1.70;;;;;;;15.62;51.04;98167.50;4935044;29;20032;-70
2021/05/22 07:35:12;;;;;;;5.35;1.15;;;;;;;14.68;52.32;98158.84;4935239;29;20209;-70
2021/05/22 07:37:39;;;;;;;4.25;1.10;;;;;;;14.12;54.45;98160.38;4934901;29;20031;-70
2021/05/22 07:40:06;;;;;;;9.57;2.20;;;;;;;14.39;53.71;98160.94;4934277;29;20066;-70
2021/05/22 07:42:31;;;;;;;5.40;1.60;;;;;;;14.55;53.70;98162.03;4934568;29;20031;-70
2021/05/22 07:44:58;;;;;;;3.92;1.30;;;;;;;14.59;51.72;98155.72;4934768;29;20532;-70
2021/05/22 07:47:24;;;;;;;8.95;1.75;;;;;;;15.82;49.17;98163.13;4934746;29;20027;-70
2021/05/22 07:49:51;;;;;;;6.18;1.77;;;;;;;17.41;44.32;98154.81;4934804;29;20032;-70
2021/05/22 07:52:16;;;;;;;16.70;1.70;;;;;;;15.50;47.42;98170.69;4934690;29;20461;-70
2021/05/22 07:54:42;;;;;;;4.43;1.30;;;;;;;16.09;46.58;98169.56;4934788;29;20042;-70
2021/05/22 07:57:09;;;;;;;4.95;1.08;;;;;;;15.08;47.87;98169.16;4934619;29;20042;-70
2021/05/22 07:59:35;;;;;;;6.45;1.55;;;;;;;14.53;48.54;98160.38;4934596;29;20028;-70
2021/05/22 08:02:01;;;;;;;4.53;1.25;;;;;;;14.76;48.50;98167.19;4934376;29;20039;-70
2021/05/22 08:04:27;;;;;;;5.82;1.40;;;;;;;14.61;50.04;98164.34;4934685;29;20023;-69
2021/05/22 08:06:53;;;;;;;8.10;2.22;;;;;;;15.51;48.59;98167.16;4934567;29;20058;-70
2021/05/22 08:09:18;;;;;;;5.60;1.15;;;;;;;15.65;47.38;98159.53;4934584;29;20032;-70
2021/05/22 08:11:44;;;;;;;3.72;1.08;;;;;;;15.54;47.23;98172.25;4936841;29;20555;-70
2021/05/22 08:14:10;;;;;;;2.60;1.00;;;;;;;15.37;46.98;98172.19;4938500;29;20036;-70
2021/05/22 08:16:36;;;;;;;4.82;1.30;;;;;;;15.28;48.27;98180.44;4938234;29;20031;-70
2021/05/22 08:19:02;;;;;;;3.75;1.10;;;;;;;14.63;48.21;98177.31;4938616;29;20027;-70
2021/05/22 08:21:28;;;;;;;7.93;1.23;;;;;;;13.87;49.38;98171.78;4938343;29;20492;-70
2021/05/22 08:23:53;;;;;;;4.57;1.13;;;;;;;13.99;49.25;98170.47;4938434;29;20434;-72
2021/05/22 08:26:19;;;;;;;4.72;1.20;;;;;;;14.01;48.25;98171.22;4938186;29;20027;-72
2021/05/22 08:28:45;;;;;;;2.97;1.17;;;;;;;15.63;44.61;98156.16;4938223;29;20132;-72
2021/05/22 08:31:10;;;;;;;5.00;1.65;;;;;;;16.41;43.37;98159.25;4938275;29;20035;-73
2021/05/22 08:33:35;;;;;;;1.73;0.77;;;;;;;15.78;44.31;98162.41;4935271;29;20353;-72
2021/05/22 08:36:01;;;;;;;8.55;3.60;;;;;;;17.90;40.48;98152.06;4938134;29;20042;-73
2021/05/22 08:38:26;;;;;;;4.22;0.90;;;;;;;18.68;38.95;98143.03;4947068;29;20102;-73
2021/05/22 08:40:52;;;;;;;4.35;1.38;;;;;;;17.49;39.93;98155.19;4937605;29;20043;-72
2021/05/22 08:43:17;;;;;;;6.65;1.35;;;;;;;17.03;41.03;98157.75;4947112;29;20389;-72
2021/05/22 08:45:43;;;;;;;2.47;0.95;;;;;;;18.94;36.01;98146.66;4944187;29;20086;-73
2021/05/22 08:48:09;;;;;;;2.70;0.82;;;;;;;19.23;35.02;98150.09;4953443;29;20023;-73
2021/05/22 08:50:34;;;;;;;4.68;1.25;;;;;;;18.93;35.97;98157.25;4941298;29;20030;-73
2021/05/22 08:53:00;;;;;;;3.85;0.93;;;;;;;18.59;36.26;98167.16;4946753;29;20022;-72
2021/05/22 08:55:25;;;;;;;6.05;1.00;;;;;;;19.15;35.36;98144.50;4946420;29;20469;-72
2021/05/22 08:57:51;;;;;;;10.20;4.15;;;;;;;20.81;32.74;98138.81;4951092;29;20037;-72
2021/05/22 09:00:20;;;;;;;6.13;1.00;;;;;;;20.89;32.13;98141.75;4940664;29;20042;-73
2021/05/22 09:02:46;;;;;;;5.37;1.33;;;;;;;20.62;32.04;98137.44;4951508;29;20544;-72
2021/05/22 09:05:20;;;;;;;4.18;1.45;;;;;;;21.88;30.45;98129.28;4945992;29;20275;-72
2021/05/22 09:07:51;;;;;;;9.52;1.70;;;;;;;22.49;29.33;98129.13;4943397;29;20031;-71
2021/05/22 09:10:18;;;;;;;2.88;0.93;;;;;;;20.22;31.88;98140.16;4953314;29;20373;-71
2021/05/22 09:12:47;;;;;;;1.73;0.98;;;;;;;21.17;29.87;98136.19;4942211;29;20031;-70
2021/05/22 09:15:15;;;;;;;2.58;0.82;;;;;;;21.06;30.10;98141.38;4947586;29;20027;-71
2021/05/22 09:17:51;;;;;;;4.13;0.82;;;;;;;19.07;30.66;98144.13;4949508;29;20038;-71
2021/05/22 09:20:26;;;;;;;3.35;0.93;;;;;;;19.01;31.81;98149.75;4940600;29;20075;-71
2021/05/22 09:23:00;;;;;;;2.25;1.02;;;;;;;20.66;30.13;98138.94;4949260;28;20082;-71
2021/05/22 09:25:27;;;;;;;5.13;1.00;;;;;;;21.61;28.83;98155.88;4947494;29;20033;-71
2021/05/22 09:27:54;;;;;;;2.25;0.88;;;;;;;22.03;28.58;98137.84;4941912;29;20032;-71
2021/05/22 09:30:21;;;;;;;8.52;4.40;;;;;;;22.47;27.35;98128.38;4938553;29;20106;-71
2021/05/22 09:32:47;;;;;;;6.47;1.00;;;;;;;22.96;28.26;98145.72;4951069;29;20489;-71
2021/05/22 09:35:14;;;;;;;3.67;1.25;;;;;;;21.23;28.21;98143.69;4945359;29;20123;-68
2021/05/22 09:37:43;;;;;;;3.72;1.60;;;;;;;21.08;28.48;98144.78;4943565;29;20473;-68
2021/05/22 09:40:09;;;;;;;2.95;1.00;;;;;;;21.58;28.97;98137.69;4952546;29;20512;-70
2021/05/22 09:42:39;;;;;;;2.95;1.05;;;;;;;22.51;25.75;98132.47;4940619;29;20031;-71
2021/05/22 09:45:23;;;;;;;1.92;0.90;;;;;;;21.32;27.09;98142.19;4948134;29;20023;-70
2021/05/22 09:47:48;;;;;;;4.80;2.75;;;;;;;19.00;30.91;98140.19;4950117;29;20023;-70
2021/05/22 09:50:32;;;;;;;6.93;1.20;;;;;;;17.53;33.74;98159.34;4939748;29;20031;-70
2021/05/22 09:53:00;;;;;;;6.60;1.10;;;;;;;17.72;33.82;98152.13;4949100;29;20051;-70
2021/05/22 09:55:26;;;;;;;4.68;1.05;;;;;;;17.59;33.20;98145.03;4946996;29;20019;-70
2021/05/22 09:57:55;;;;;;;3.45;0.88;;;;;;;20.24;30.23;98134.78;4941751;29;20042;-70
2021/05/22 10:00:24;;;;;;;1.27;0.80;;;;;;;22.40;26.73;98124.56;4951997;29;20493;-70
2021/05/22 10:02:57;;;;;;;3.60;0.77;;;;;;;22.42;26.48;98133.19;4942261;29;20034;-71
2021/05/22 10:05:35;;;;;;;1.65;0.88;;;;;;;22.83;27.51;98138.75;4945384;29;20024;-71
2021/05/22 10:08:03;;;;;;;5.65;1.05;;;;;;;21.87;26.80;98150.53;4951203;29;20023;-70
2021/05/22 10:10:46;;;;;;;2.35;0.80;;;;;;;20.17;28.80;98144.88;4939492;29;20027;-70
2021/05/22 10:13:13;;;;;;;4.05;1.10;;;;;;;18.72;31.04;98159.44;4947014;29;20034;-70
2021/05/22 10:15:38;;;;;;;3.53;1.10;;;;;;;20.45;30.67;98143.84;4948103;29;20020;-70
2021/05/22 10:18:05;;;;;;;2.17;1.15;;;;;;;19.72;30.42;98141.69;4939595;29;20038;-70
2021/05/22 10:20:31;;;;;;;5.45;0.98;;;;;;;19.31;30.72;98151.41;4951849;29;20042;-70
2021/05/22 10:22:57;;;;;;;1.42;0.70;;;;;;;20.42;28.79;98141.41;4942481;29;20564;-70
2021/05/22 10:25:22;;;;;;;3.13;0.70;;;;;;;20.93;28.56;98135.31;4945123;29;20031;-71
2021/05/22 10:27:48;;;;;;;2.63;1.10;;;;;;;21.88;28.68;98145.13;4945576;29;20548;-70
2021/05/22 10:30:16;;;;;;;3.67;1.20;;;;;;;18.23;33.47;98147.47;4950567;29;20023;-70
2021/05/22 10:32:42;;;;;;;2.38;0.90;;;;;;;17.34;35.36;98161.28;4940407;29;20023;-70
2021/05/22 10:35:13;;;;;;;3.05;0.90;;;;;;;17.29;34.55;98150.22;4937681;29;20070;-70
2021/05/22 10:37:47;;;;;;;3.83;1.20;;;;;;;20.48;30.93;98145.44;4947728;29;20023;-70
2021/05/22 10:40:15;;;;;;;6.78;1.00;;;;;;;21.62;29.84;98144.41;4938850;29;20481;-70
2021/05/22 10:42:43;;;;;;;3.92;0.85;;;;;;;22.39;28.26;98144.00;4950439;29;20574;-68
2021/05/22 10:45:38;;;;;;;3.38;1.50;;;;;;;23.62;25.85;98141.28;4943825;29;20031;-68
2021/05/22 10:48:25;;;;;;;4.70;0.93;;;;;;;22.68;26.90;98129.38;4939011;29;20066;-68
2021/05/22 10:50:51;;;;;;;1.30;0.70;;;;;;;23.37;24.08;98126.59;4927760;29;20039;-73
2021/05/22 10:53:22;;;;;;;1.00;0.80;;;;;;;21.25;28.72;98141.75;4945476;29;20031;-69
2021/05/22 10:56:04;;;;;;;2.85;1.00;;;;;;;22.35;27.69;98131.97;4948581;29;20035;-69
2021/05/22 10:58:29;;;;;;;5.43;0.90;;;;;;;20.32;29.30;98144.78;4938423;29;20047;-68
2021/05/22 11:04:17;;;;;;;5.07;0.85;;;;;;;21.35;27.81;98136.72;4948910;29;20031;-69
2021/05/22 11:06:49;;;;;;;1.38;0.90;;;;;;;21.70;27.88;98139.41;4925246;29;20015;-68
2021/05/22 11:09:31;;;;;;;3.45;1.23;;;;;;;23.51;25.90;98133.41;4945302;29;20425;-68
2021/05/22 11:11:57;;;;;;;2.58;0.60;;;;;;;24.14;24.54;98137.03;4949608;29;20126;-69
2021/05/22 11:14:44;;;;;;;3.10;0.90;;;;;;;20.41;29.67;98144.16;4938166;29;20035;-69
2021/05/22 11:17:19;;;;;;;4.57;3.10;;;;;;;22.75;25.75;98141.13;4945533;29;20028;-77
2021/05/22 11:22:25;;;;;;;1.05;0.73;;;;;;;18.09;30.66;98149.19;4937944;29;20412;-74
2021/05/22 11:25:10;;;;;;;2.85;1.17;;;;;;;18.34;31.70;98138.09;4948272;29;20023;-76
2021/05/22 11:30:21;;;;;;;2.50;1.20;;;;;;;18.08;33.62;98169.31;4950523;29;20086;-74
2021/05/22 11:32:56;;;;;;;2.97;0.93;;;;;;;20.41;29.43;98144.16;4934834;29;20030;-74
2021/05/22 11:35:25;;;;;;;2.95;0.70;;;;;;;20.28;29.17;98142.34;4944610;29;20499;-74
2021/05/22 11:37:51;;;;;;;5.10;1.55;;;;;;;19.68;28.24;98147.28;4940014;29;20400;-74
2021/05/22 11:40:34;;;;;;;4.32;0.90;;;;;;;20.65;27.35;98147.78;4950367;29;20027;-74
2021/05/22 11:43:22;;;;;;;6.15;1.15;;;;;;;21.08;27.72;98144.78;4941517;29;20027;-74
2021/05/22 11:45:53;;;;;;;3.33;0.65;;;;;;;19.27;28.73;98151.59;4939883;29;20038;-74
2021/05/22 11:48:43;;;;;;;2.35;0.73;;;;;;;18.24;29.24;98149.13;4950040;29;20437;-74
2021/05/22 11:51:38;;;;;;;1.88;0.70;;;;;;;18.32;30.05;98155.69;4942909;29;20038;-74
2021/05/22 11:54:14;;;;;;;3.15;1.15;;;;;;;18.05;30.86;98158.19;4935719;29;20035;-74
2021/05/22 11:56:40;;;;;;;5.03;1.30;;;;;;;18.52;31.27;98151.88;4924140;29;20030;-73
2021/05/22 11:59:07;;;;;;;3.85;1.17;;;;;;;18.98;29.15;98160.44;4945673;29;20389;-75
2021/05/22 12:01:42;;;;;;;3.97;2.70;;;;;;;19.15;29.24;98155.00;4945497;29;20067;-74
2021/05/22 12:04:13;;;;;;;3.38;1.17;;;;;;;19.01;28.68;98152.41;4937683;29;20024;-75
2021/05/22 12:06:41;;;;;;;2.33;0.82;;;;;;;18.72;29.02;98160.28;4949320;29;20035;-75
2021/05/22 12:09:09;;;;;;;4.10;0.90;;;;;;;18.68;29.90;98152.66;4942260;29;20031;-74
2021/05/22 12:11:43;;;;;;;2.55;0.90;;;;;;;18.75;29.94;98148.72;4941636;29;20405;-74
2021/05/22 12:14:09;;;;;;;5.80;1.35;;;;;;;18.14;28.98;98163.72;4950121;29;20031;-74
2021/05/22 12:16:35;;;;;;;3.70;1.10;;;;;;;17.97;28.74;98164.69;4937895;29;20019;-74
2021/05/22 12:19:18;;;;;;;5.15;1.00;;;;;;;18.15;31.24;98169.81;4946424;29;20027;-77
2021/05/22 12:21:51;;;;;;;2.83;1.15;;;;;;;18.01;29.17;98168.00;4947006;29;20087;-77
2021/05/22 12:24:17;;;;;;;1.02;0.88;;;;;;;17.99;29.57;98162.00;4904735;29;20893;-77
2021/05/22 12:26:52;;;;;;;2.78;1.00;;;;;;;18.18;29.13;98165.25;4929969;29;20033;-78
2021/05/22 12:29:19;;;;;;;2.45;0.70;;;;;;;19.05;28.90;98151.28;4913166;29;20100;-77
2021/05/22 12:31:56;;;;;;;4.80;2.95;;;;;;;19.37;29.06;98151.00;4929060;29;20028;-73
2021/05/22 12:34:27;;;;;;;9.00;1.20;;;;;;;19.41;28.95;98152.50;4912672;29;20048;-76
2021/05/22 12:37:00;;;;;;;4.60;0.88;;;;;;;18.71;28.60;98153.34;4946276;29;20031;-70
2021/05/22 12:39:40;;;;;;;4.65;1.30;;;;;;;18.33;30.32;98158.25;4919619;29;20077;-70
2021/05/22 12:42:24;;;;;;;2.05;1.05;;;;;;;18.52;29.18;98141.38;4921790;29;20611;-71
2021/05/22 12:44:56;;;;;;;2.70;1.08;;;;;;;18.43;30.26;98163.78;4898777;29;20531;-70
2021/05/22 12:47:24;;;;;;;1.83;1.00;;;;;;;18.74;29.67;98153.13;4917313;29;20485;-71
2021/05/22 12:49:53;;;;;;;2.80;0.95;;;;;;;19.39;29.09;98156.97;4916644;29;20118;-71
2021/05/22 12:52:19;;;;;;;;;;;;;;;19.37;29.84;98156.25;4924769;29;20545;-71
2021/05/22 12:54:45;;;;;;;1.95;0.80;;;;;;;19.32;29.50;98155.72;4892104;29;19918;-71
2021/05/22 12:57:24;;;;;;;5.78;1.00;;;;;;;18.60;30.64;98160.97;4919389;29;20035;-71
2021/05/22 12:59:52;;;;;;;5.68;1.00;;;;;;;18.51;31.00;98151.03;4896723;29;20051;-70
2021/05/22 13:02:17;;;;;;;3.33;1.02;;;;;;;19.59;30.62;98146.06;4920590;29;20091;-71
2021/05/22 13:04:48;;;;;;;1.10;0.60;;;;;;;18.97;28.38;98153.53;4897025;29;20047;-70
2021/05/22 13:07:15;;;;;;;2.40;0.90;;;;;;;18.59;29.14;98167.16;4923212;29;20028;-71
2021/05/22 13:10:13;;;;;;;4.53;0.95;;;;;;;18.15;30.69;98165.41;4898689;29;20054;-70
2021/05/22 13:13:01;;;;;;;3.80;0.98;;;;;;;18.35;30.28;98160.75;4913707;29;20047;-71
2021/05/22 13:15:47;;;;;;;2.42;1.00;;;;;;;17.75;30.94;98171.28;4912668;23;20051;-73
2021/05/22 13:18:15;;;;;;;1.48;1.00;;;;;;;17.78;31.51;98176.31;4890686;29;20052;-73
2021/05/22 13:20:51;;;;;;;6.93;2.15;;;;;;;17.80;31.11;98179.72;4896905;29;20636;-73
2021/05/22 13:23:19;;;;;;;3.20;0.90;;;;;;;17.67;32.59;98180.38;4890850;29;20040;-73
2021/05/22 13:25:49;;;;;;;5.22;1.23;;;;;;;17.84;32.89;98174.22;4868012;29;20098;-73
2021/05/22 13:28:19;;;;;;;;;;;;;;;17.59;32.96;98181.72;4891131;29;20497;-73
2021/05/22 13:30:45;;;;;;;;;;;;;;;17.64;33.45;98184.94;4880679;29;19926;-73
2021/05/22 13:33:13;;;;;;;2.72;0.90;;;;;;;17.89;32.98;98197.50;4889663;29;19919;-73
2021/05/22 13:35:39;;;;;;;3.22;1.05;;;;;;;17.62;33.65;98187.63;4880690;29;20044;-73
2021/05/22 13:38:06;;;;;;;12.50;7.43;;;;;;;17.76;33.50;98183.44;4890610;29;20454;-73
2021/05/22 13:40:37;;;;;;;4.75;0.98;;;;;;;17.96;34.08;98180.53;4862404;29;20108;-73
2021/05/22 13:43:06;;;;;;;5.65;1.00;;;;;;;18.13;33.73;98183.03;4884692;29;20060;-74
2021/05/22 13:45:31;;;;;;;3.78;1.15;;;;;;;18.63;33.42;98173.91;4879369;29;20514;-73
2021/05/22 13:47:57;;;;;;;5.60;1.83;;;;;;;19.05;33.73;98180.16;4891505;29;20048;-74
2021/05/22 13:50:23;;;;;;;6.10;1.38;;;;;;;18.81;32.62;98169.38;4876829;29;20108;-79
2021/05/22 13:52:50;;;;;;;6.57;1.20;;;;;;;18.74;32.73;98158.38;4890677;29;20032;-77
2021/05/22 13:55:17;;;;;;;4.90;0.98;;;;;;;19.12;32.26;98163.06;4869984;29;20048;-78
2021/05/22 13:57:43;;;;;;;0.93;0.63;;;;;;;19.14;30.69;98161.16;4889789;29;20040;-78
2021/05/22 14:00:09;;;;;;;4.47;0.85;;;;;;;19.39;30.93;98154.34;4874916;29;20044;-78
2021/05/22 14:02:34;;;;;;;3.40;0.80;;;;;;;19.23;31.13;98155.34;4887687;29;20032;-78
2021/05/22 14:05:00;;;;;;;3.63;1.00;;;;;;;18.77;31.38;98152.13;4873227;29;20052;-78
2021/05/22 14:07:25;;;;;;;3.58;1.00;;;;;;;18.82;30.64;98162.34;4894950;29;20067;-77
2021/05/22 14:09:52;;;;;;;2.17;0.82;;;;;;;18.93;31.54;98157.25;4871572;29;20131;-75
2021/05/22 14:12:18;;;;;;;2.08;0.82;;;;;;;19.42;31.60;98147.13;4895676;29;20390;-74
2021/05/22 14:14:44;;;;;;;1.02;0.60;;;;;;;19.30;30.17;98149.72;4872190;29;20052;-75
2021/05/22 14:17:10;;;;;;;2.67;0.88;;;;;;;18.66;30.92;98158.00;4896464;29;20082;-74
2021/05/22 14:19:35;;;;;;;11.48;6.15;;;;;;;18.56;31.43;98154.22;4862519;29;20523;-74
2021/05/22 14:22:01;;;;;;;1.23;1.00;;;;;;;18.22;32.24;98158.00;4888555;29;20036;-74
2021/05/22 14:24:26;;;;;;;3.70;0.82;;;;;;;17.78;32.14;98165.84;4866874;29;20131;-74
2021/05/22 14:26:51;;;;;;;1.23;0.80;;;;;;;17.65;33.22;98177.00;4895210;29;20111;-74
2021/05/22 14:29:17;;;;;;;3.45;0.88;;;;;;;18.42;32.47;98156.81;4865143;29;20071;-74
2021/05/22 14:31:43;;;;;;;5.53;0.70;;;;;;;18.54;32.83;98153.47;4890537;29;20223;-74
2021/05/22 14:34:08;;;;;;;1.75;0.68;;;;;;;19.00;31.65;98143.69;4866257;29;20052;-74
2021/05/22 14:36:35;;;;;;;2.70;0.77;;;;;;;18.58;32.05;98136.63;4900598;29;20401;-77
2021/05/22 14:39:00;;;;;;;3.13;0.90;;;;;;;18.28;33.64;98148.97;4864116;29;20064;-76
2021/05/22 14:41:25;;;;;;;2.60;0.90;;;;;;;17.81;33.79;98155.19;4891879;29;20184;-77
2021/05/22 14:43:51;;;;;;;2.58;1.00;;;;;;;17.63;33.50;98152.66;4863237;29;20047;-75
2021/05/22 14:46:16;;;;;;;4.60;1.88;;;;;;;17.63;33.22;98157.88;4892935;29;20494;-74
2021/05/22 14:48:45;;;;;;;2.00;1.08;;;;;;;17.62;33.61;98156.19;4883348;29;20060;-74
2021/05/22 14:51:10;;;;;;;1.30;0.75;;;;;;;17.77;33.59;98151.91;4868857;29;20777;-74
2021/05/22 14:53:36;;;;;;;3.22;1.00;;;;;;;18.64;31.86;98144.13;4899750;29;20029;-74
2021/05/22 14:56:01;;;;;;;2.83;0.90;;;;;;;18.88;33.04;98144.41;4868866;29;20084;-78
2021/05/22 14:58:26;;;;;;;5.22;1.00;;;;;;;19.18;31.44;98136.41;4887846;29;20032;-74
2021/05/22 15:00:53;;;;;;;4.28;0.95;;;;;;;18.71;32.35;98148.09;4869806;29;20051;-74
2021/05/22 15:03:18;;;;;;;1.70;0.82;;;;;;;18.46;32.99;98138.19;4886566;29;20119;-76
2021/05/22 15:05:44;;;;;;;1.83;0.80;;;;;;;18.43;33.24;98132.31;4877186;29;20505;-74
2021/05/22 15:08:09;;;;;;;1.05;0.70;;;;;;;18.38;34.01;98129.13;4888717;29;20033;-74
2021/05/22 15:10:35;;;;;;;2.55;0.82;;;;;;;18.22;33.22;98127.38;4867591;29;20053;-75
2021/05/22 15:13:00;;;;;;;2.40;0.82;;;;;;;18.07;33.21;98144.03;4884075;29;20021;-75
2021/05/22 15:15:25;;;;;;;4.10;1.13;;;;;;;18.10;33.26;98151.72;4874324;29;20212;-74
2021/05/22 15:17:51;;;;;;;3.58;1.20;;;;;;;18.44;32.43;98137.44;4887406;29;20394;-79
2021/05/22 15:20:16;;;;;;;2.95;0.90;;;;;;;18.51;31.98;98130.03;4872717;29;20059;-79
2021/05/22 15:22:43;;;;;;;2.00;1.20;;;;;;;18.37;33.68;98135.28;4891011;29;20040;-79
2021/05/22 15:25:10;;;;;;;9.23;2.03;;;;;;;18.28;34.35;98138.47;4867632;29;20048;-72
2021/05/22 15:27:35;;;;;;;5.68;4.05;;;;;;;17.94;33.45;98132.59;4889553;29;20036;-74
2021/05/22 15:30:02;;;;;;;3.58;1.83;;;;;;;17.86;33.99;98134.81;4870865;29;20048;-73
2021/05/22 15:32:27;;;;;;;7.00;0.82;;;;;;;17.63;34.40;98139.53;4893383;29;20119;-73
2021/05/22 15:34:53;;;;;;;2.00;1.38;;;;;;;17.43;34.91;98150.31;4861520;29;20044;-73
2021/05/22 15:37:18;;;;;;;6.38;0.85;;;;;;;17.66;34.07;98141.16;4884270;29;20506;-73
2021/05/22 15:39:44;;;;;;;7.10;1.40;;;;;;;18.34;34.13;98138.09;4862774;29;20635;-73
2021/05/22 15:42:13;;;;;;;1.98;0.80;;;;;;;18.42;33.08;98143.72;4888055;29;20080;-73
2021/05/22 15:44:39;;;;;;;3.10;1.00;;;;;;;18.47;33.86;98144.31;4866527;29;20411;-73
2021/05/22 15:47:05;;;;;;;2.40;1.45;;;;;;;18.84;33.69;98147.31;4890489;29;20039;-74
2021/05/22 16:00:14;;;;;;;3.25;1.20;;;;;;;17.97;35.21;98156.81;4867660;29;20055;-77
2021/05/22 16:05:45;;;;;;;3.72;2.17;;;;;;;18.00;34.73;98171.56;4858356;29;20528;-77
2021/05/22 16:08:11;;;;;;;3.50;1.30;;;;;;;18.43;34.91;98166.41;4882710;29;20783;-76
2021/05/22 16:10:36;;;;;;;4.40;1.23;;;;;;;18.56;33.92;98167.34;4869056;29;20127;-72
2021/05/22 16:13:02;;;;;;;8.23;2.17;;;;;;;18.52;32.16;98162.38;4884027;29;20108;-78
2021/05/22 16:15:27;;;;;;;3.45;1.00;;;;;;;18.42;31.64;98183.94;4857535;29;20065;-71
2021/05/22 16:17:53;;;;;;;2.50;0.90;;;;;;;18.33;30.44;98178.38;4885565;29;20032;-72
2021/05/22 16:20:18;;;;;;;3.30;1.10;;;;;;;17.95;30.06;98178.84;4862726;29;21119;-72
2021/05/22 16:22:44;;;;;;;2.08;0.60;;;;;;;18.01;29.06;98178.47;4884648;29;20110;-77
2021/05/22 16:25:10;;;;;;;2.50;0.75;;;;;;;18.20;28.82;98181.72;4857247;29;20044;-77
2021/05/22 16:27:36;;;;;;;1.13;0.68;;;;;;;18.30;29.20;98189.88;4881743;29;20706;-72
2021/05/22 16:30:02;;;;;;;1.00;0.65;;;;;;;18.35;30.51;98198.31;4857824;29;20100;-72
2021/05/22 16:32:27;;;;;;;4.60;0.80;;;;;;;18.46;30.49;98189.81;4882057;29;20482;-72
2021/05/22 16:34:53;;;;;;;5.00;3.17;;;;;;;18.41;30.71;98179.59;4866464;29;20051;-78
2021/05/22 16:37:18;;;;;;;2.38;0.70;;;;;;;18.07;30.38;98183.34;4889567;29;20043;-77
2021/05/22 16:39:43;;;;;;;3.58;0.75;;;;;;;17.97;30.28;98192.69;4866230;29;20103;-77
2021/05/22 16:42:09;;;;;;;3.78;1.10;;;;;;;18.26;31.11;98188.38;4892114;29;20048;-72
2021/05/22 16:44:34;;;;;;;3.78;1.48;;;;;;;18.05;31.28;98180.00;4864109;29;20729;-72
2021/05/22 16:46:59;;;;;;;2.78;1.60;;;;;;;18.04;31.69;98188.81;4885566;29;20714;-72
2021/05/22 16:49:25;;;;;;;2.45;1.00;;;;;;;18.20;31.55;98173.84;4864862;29;20100;-72
2021/05/22 16:51:51;;;;;;;3.05;1.00;;;;;;;18.16;31.18;98180.19;4893334;29;20033;-72
2021/05/22 16:54:16;;;;;;;3.83;0.80;;;;;;;18.31;32.00;98181.06;4866339;29;20116;-72
2021/05/22 16:56:41;;;;;;;1.90;0.85;;;;;;;18.15;31.50;98175.91;4894041;29;20080;-76
2021/05/22 16:59:07;;;;;;;1.83;1.00;;;;;;;18.28;32.05;98176.03;4867758;29;20457;-72
2021/05/22 17:01:32;;;;;;;1.48;0.65;;;;;;;18.14;31.53;98182.09;4903806;29;20751;-72
2021/05/22 17:03:58;;;;;;;3.28;0.80;;;;;;;17.97;31.33;98187.44;4884208;29;20025;-73
2021/05/22 17:06:23;;;;;;;1.30;0.80;;;;;;;17.39;31.93;98180.22;4877856;29;20076;-72
2021/05/22 17:08:49;;;;;;;2.65;0.90;;;;;;;17.04;32.57;98188.22;4890712;29;20298;-72
2021/05/22 17:11:14;;;;;;;2.20;0.68;;;;;;;16.75;32.99;98183.69;4856850;29;20134;-72
2021/05/22 17:13:40;;;;;;;2.65;1.05;;;;;;;16.57;32.99;98175.84;4889918;29;20028;-72
2021/05/22 17:16:05;;;;;;;2.58;1.20;;;;;;;16.55;33.47;98182.09;4879909;29;20457;-75
2021/05/22 17:18:31;;;;;;;1.17;0.88;;;;;;;16.52;34.17;98190.06;4887965;29;20047;-76
2021/05/22 17:20:56;;;;;;;2.78;1.10;;;;;;;16.36;33.91;98192.63;4866235;29;20406;-77
2021/05/22 17:23:21;;;;;;;1.00;0.80;;;;;;;16.25;33.74;98192.34;4889398;29;20036;-77
2021/05/22 17:25:47;;;;;;;1.20;0.68;;;;;;;16.40;33.56;98195.03;4869566;29;20092;-76
2021/05/22 17:28:12;;;;;;;1.92;0.85;;;;;;;16.50;33.75;98190.16;4889400;29;20032;-76
2021/05/22 17:30:38;;;;;;;1.88;1.00;;;;;;;16.55;33.95;98190.78;4870868;29;20044;-71
2021/05/22 17:33:05;;;;;;;0.77;0.77;;;;;;;16.76;33.64;98185.38;4889061;29;20494;-71
2021/05/22 17:35:31;;;;;;;1.60;0.82;;;;;;;16.63;34.13;98186.00;4868616;29;20447;-71
2021/05/22 17:37:56;;;;;;;3.85;0.70;;;;;;;16.46;34.11;98191.25;4888067;29;20037;-71
2021/05/22 17:40:25;;;;;;;1.23;0.85;;;;;;;16.42;34.40;98194.94;4864669;29;20053;-72
2021/05/22 17:42:51;;;;;;;4.43;0.80;;;;;;;16.46;34.04;98193.84;4886110;29;20115;-72
2021/05/22 17:45:20;;;;;;;3.60;1.17;;;;;;;16.51;34.52;98186.63;4864920;29;20056;-72
2021/05/22 17:47:47;;;;;;;4.47;1.02;;;;;;;16.80;34.70;98186.91;4886003;29;20044;-73
2021/05/22 17:50:13;;;;;;;1.90;0.90;;;;;;;16.79;34.60;98180.84;4868294;29;20521;-73
2021/05/22 17:52:38;;;;;;;2.03;1.13;;;;;;;16.72;34.58;98183.84;4891928;29;20025;-73
2021/05/22 17:55:05;;;;;;;7.85;3.08;;;;;;;16.51;35.43;98181.38;4872917;29;20066;-72
2021/05/22 17:57:31;;;;;;;3.50;2.03;;;;;;;16.24;35.41;98188.00;4894868;29;20060;-72
2021/05/22 17:59:56;;;;;;;4.97;0.90;;;;;;;16.12;35.69;98192.94;4865220;29;20208;-72
2021/05/22 18:02:21;;;;;;;2.78;2.05;;;;;;;16.20;35.88;98197.81;4886116;29;20510;-72
2021/05/22 18:04:47;;;;;;;3.40;1.20;;;;;;;16.11;36.15;98193.88;4866807;29;20127;-72
2021/05/22 18:07:13;;;;;;;3.88;1.10;;;;;;;16.01;36.28;98190.03;4892206;29;20036;-73
2021/05/22 18:09:39;;;;;;;3.78;1.13;;;;;;;15.96;37.69;98184.19;4869708;29;20532;-73
2021/05/22 18:12:05;;;;;;;6.03;4.13;;;;;;;15.91;38.05;98186.19;4887135;29;20028;-72
2021/05/22 18:14:30;;;;;;;8.98;6.45;;;;;;;15.78;37.84;98191.16;4866306;29;20536;-72
2021/05/22 18:16:56;;;;;;;6.97;4.45;;;;;;;15.52;37.96;98195.00;4893966;29;20034;-72
2021/05/22 18:19:21;;;;;;;4.78;3.28;;;;;;;15.27;38.32;98195.25;4866721;29;20047;-72
2021/05/22 18:21:47;;;;;;;5.57;3.85;;;;;;;15.29;38.48;98197.81;4901495;29;20059;-72
2021/05/22 18:24:12;;;;;;;5.85;4.63;;;;;;;15.22;39.57;98197.25;4864080;29;20037;-77
2021/05/22 18:26:38;;;;;;;9.50;8.35;;;;;;;15.22;39.52;98197.25;4902387;29;20044;-78
2021/05/22 18:29:04;;;;;;;11.32;7.22;;;;;;;15.14;40.01;98200.22;4887270;29;20029;-78
2021/05/22 18:31:32;;;;;;;9.82;6.15;;;;;;;14.96;40.85;98201.03;4861023;29;20097;-78
2021/05/22 18:33:59;;;;;;;4.63;3.80;;;;;;;14.85;39.81;98198.94;4887513;29;20032;-78
2021/05/22 18:36:24;;;;;;;3.10;1.75;;;;;;;14.63;40.31;98192.94;4870211;29;20475;-78
2021/05/22 18:38:49;;;;;;;8.75;3.67;;;;;;;14.77;40.78;98198.41;4887922;29;20035;-73
2021/05/22 18:41:15;;;;;;;4.53;2.42;;;;;;;14.77;40.41;98205.38;4879077;29;20043;-72
2021/05/22 18:43:42;;;;;;;3.72;2.80;;;;;;;14.62;40.96;98201.69;4888186;29;20092;-76
2021/05/22 18:46:07;;;;;;;7.00;4.03;;;;;;;14.59;41.67;98207.88;4878490;29;20047;-78
2021/05/22 18:48:32;;;;;;;10.77;5.88;;;;;;;14.52;41.23;98214.28;4887873;29;20033;-73
2021/05/22 18:50:58;;;;;;;3.47;2.50;;;;;;;14.51;41.07;98227.41;4846299;29;20600;-73
2021/05/22 18:53:23;;;;;;;4.70;1.52;;;;;;;14.48;42.05;98220.53;4884525;29;20033;-73
2021/05/22 18:55:48;;;;;;;2.22;1.13;;;;;;;14.35;42.90;98224.53;4874277;29;20463;-73
2021/05/22 18:58:16;;;;;;;2.53;1.15;;;;;;;14.23;43.75;98220.69;4887355;29;20037;-73
2021/05/22 19:00:41;;;;;;;4.63;1.25;;;;;;;14.03;44.49;98218.91;4868434;29;20048;-73